メインページ
METAR-TAF:

METAR-TAF

空港 :

ジッダ, サウジアラビア

キング・アブドゥルアズィーズ国際空港

緯度: 21-42N, 経度: 039-11E, 海抜: 15m

現時点の気象観測

当レポートは41分前の09:00(UTC)に作成
北/北西の風 12kt
気温 28°C
湿度 40%
気圧 1009 hPa
視程10km以上
1,500メートル以下は雲なし、積乱雲なし

METAR: OEJN 250900Z 33012KT CAVOK 28/13 Q1009 NOSIG

時間: 12:41 (09:41 UTC)

予報

当レポートは4時間41分前の05:00(UTC)に作成
予報は25日の 06時(UTC)から 26日の 12時(UTC)まで有効
北/北西の風 8kt、最大18ktの突風を伴う
視程: 7000m
高度4000ftの雲はほとんどない
高度10000ftの雲は散在している

TAF: OEJN 250500Z 2506/2612 33008G18KT 7000 FEW040 SCT100

4,000以上の空港の気象観測と天気予報(METAR報とTAF報)

利用可能な観測所は地図上に黄色い丸と赤い丸で示す。

丸の上にカーソルを重ねると観測所名を参照できる。

次にクリックすると気象観測と天気予報を参照できる。

マップの切り替え:黒色「×」印の緑ボタンをクリックして拡大、「-」印の緑ボタンをクリックして縮小、緑色の三角印をクリックして隣りの地図に切り替え


METAR-TAF: